Time;durP1;ratioP1;P1;durP2;ratioP2;P2;SDS_P1;SDS_P2;PMS_P1;PMS_P2;Temp;Humidity;BMP_temperature;BMP_pressure;BME280_temperature;BME280_humidity;BME280_pressure;Samples;Min_cycle;Max_cycle;Signal;HPM_P1;HPM_P2
2022/07/16 00:02:30;;;;;;;1.35;0.50;;;20.70;57.90;;;;;;5082962;27;20513;-19
2022/07/16 00:04:56;;;;;;;0.63;0.52;;;20.70;57.80;;;;;;5084824;27;20139;-19
2022/07/16 00:07:21;;;;;;;1.63;0.75;;;20.70;57.60;;;;;;5078420;28;20432;-19
2022/07/16 00:09:47;;;;;;;3.08;0.80;;;20.70;57.90;;;;;;5085489;27;20085;-19
2022/07/16 00:12:13;;;;;;;1.10;0.55;;;20.70;57.70;;;;;;5086009;27;20032;-19
2022/07/16 00:14:38;;;;;;;0.80;0.70;;;20.70;57.80;;;;;;5086276;27;20128;-19
2022/07/16 00:17:04;;;;;;;0.60;0.50;;;20.60;57.70;;;;;;5083274;27;20414;-19
2022/07/16 00:19:29;;;;;;;0.85;0.50;;;20.70;57.90;;;;;;5082278;27;20077;-19
2022/07/16 00:21:56;;;;;;;0.60;0.50;;;20.60;57.90;;;;;;5087700;28;20086;-19
2022/07/16 00:24:22;;;;;;;0.68;0.68;;;20.70;57.90;;;;;;5085843;27;20047;-19
2022/07/16 00:26:48;;;;;;;1.05;0.80;;;20.70;57.90;;;;;;5085358;27;20067;-19
2022/07/16 00:29:15;;;;;;;0.73;0.73;;;20.50;57.70;;;;;;5077248;28;20128;-20
2022/07/16 00:31:41;;;;;;;2.35;0.80;;;20.50;57.90;;;;;;5085745;27;20104;-20
2022/07/16 00:34:07;;;;;;;1.20;1.10;;;20.50;58.10;;;;;;5084937;27;20068;-20
2022/07/16 00:36:34;;;;;;;1.38;0.77;;;20.40;58.00;;;;;;5084393;27;20098;-19
2022/07/16 00:38:59;;;;;;;1.25;0.90;;;20.40;57.90;;;;;;5083573;28;20109;-19
2022/07/16 00:41:25;;;;;;;1.92;0.70;;;20.40;58.10;;;;;;5084344;27;20048;-20
2022/07/16 00:43:52;;;;;;;0.82;0.82;;;20.50;57.90;;;;;;5083963;28;20181;-22
2022/07/16 00:46:18;;;;;;;1.05;0.90;;;20.40;57.90;;;;;;5084463;27;20090;-19
2022/07/16 00:48:44;;;;;;;1.80;0.70;;;20.50;57.70;;;;;;5082867;27;20425;-19
2022/07/16 00:51:09;;;;;;;0.73;0.73;;;20.40;57.90;;;;;;5083858;28;20418;-19
2022/07/16 00:53:35;;;;;;;0.70;0.70;;;20.50;57.80;;;;;;5082028;27;21013;-19
2022/07/16 00:56:01;;;;;;;1.40;0.80;;;20.50;57.80;;;;;;5085281;28;20044;-20
2022/07/16 00:58:27;;;;;;;1.25;0.90;;;20.40;58.10;;;;;;5083694;27;20040;-21
2022/07/16 01:00:52;;;;;;;0.90;0.90;;;20.20;58.10;;;;;;5084748;27;20051;-19
2022/07/16 01:03:18;;;;;;;0.80;0.80;;;20.20;59.00;;;;;;5082543;28;20040;-19
2022/07/16 01:05:44;;;;;;;0.80;0.80;;;20.30;58.40;;;;;;5082971;28;20044;-19
2022/07/16 01:08:09;;;;;;;0.93;0.75;;;20.40;58.10;;;;;;5081929;28;20127;-21
2022/07/16 01:10:35;;;;;;;0.63;0.50;;;20.30;58.00;;;;;;5083218;28;20425;-19
2022/07/16 01:13:01;;;;;;;0.93;0.60;;;20.30;58.30;;;;;;5086765;28;20088;-19
2022/07/16 01:15:26;;;;;;;2.78;1.10;;;20.20;58.30;;;;;;5078173;27;20056;-19
2022/07/16 01:17:53;;;;;;;1.00;0.90;;;20.30;58.80;;;;;;5086157;28;20367;-19
2022/07/16 01:20:19;;;;;;;0.90;0.63;;;20.20;58.30;;;;;;5083260;27;20028;-20
2022/07/16 01:22:45;;;;;;;1.20;0.65;;;20.30;58.10;;;;;;5084641;27;20047;-19
2022/07/16 01:25:11;;;;;;;0.77;0.75;;;20.20;58.30;;;;;;5085532;28;20494;-19
2022/07/16 01:27:38;;;;;;;1.00;0.90;;;20.20;58.40;;;;;;5082345;28;20043;-19
2022/07/16 01:30:08;;;;;;;0.90;0.60;;;20.20;58.50;;;;;;5084930;28;20511;-19
2022/07/16 01:32:34;;;;;;;1.15;1.05;;;20.20;58.40;;;;;;5086003;28;20127;-19
2022/07/16 01:35:01;;;;;;;1.00;0.82;;;20.10;58.70;;;;;;5084912;27;20058;-19
2022/07/16 01:37:26;;;;;;;1.13;0.98;;;20.10;58.90;;;;;;5084192;27;20067;-19
2022/07/16 01:39:52;;;;;;;0.88;0.77;;;20.10;58.90;;;;;;5085296;27;20248;-19
2022/07/16 01:42:17;;;;;;;1.27;0.80;;;20.00;59.20;;;;;;5080351;27;20558;-19
2022/07/16 01:44:43;;;;;;;1.98;0.80;;;19.90;59.10;;;;;;5084466;27;20048;-20
2022/07/16 01:47:10;;;;;;;1.00;0.90;;;20.00;59.20;;;;;;5082222;27;20127;-18
2022/07/16 01:49:37;;;;;;;1.52;0.80;;;19.90;59.30;;;;;;5084668;27;20128;-22
2022/07/16 01:52:07;;;;;;;1.05;0.85;;;19.90;59.40;;;;;;5086591;27;20047;-21
2022/07/16 01:54:33;;;;;;;1.20;1.10;;;19.70;59.40;;;;;;5085854;27;20133;-20
2022/07/16 01:56:59;;;;;;;2.10;1.45;;;19.80;59.70;;;;;;5082947;27;20525;-25
2022/07/16 01:59:24;;;;;;;1.17;0.95;;;19.80;59.50;;;;;;5083923;27;20036;-19
2022/07/16 02:01:50;;;;;;;1.30;0.75;;;19.80;59.40;;;;;;5083543;28;20044;-19
2022/07/16 02:04:15;;;;;;;0.98;0.80;;;19.80;59.30;;;;;;5082140;27;20489;-20
2022/07/16 02:06:41;;;;;;;1.00;0.82;;;19.80;59.30;;;;;;5081353;27;20055;-28
2022/07/16 02:09:06;;;;;;;1.13;1.02;;;19.80;59.20;;;;;;5084169;27;20041;-19
2022/07/16 02:11:32;;;;;;;0.98;0.98;;;19.80;59.50;;;;;;5082523;27;20048;-20
2022/07/16 02:13:58;;;;;;;1.45;0.82;;;19.70;59.60;;;;;;5084795;27;20044;-20
2022/07/16 02:16:23;;;;;;;1.05;0.85;;;19.60;59.70;;;;;;5081847;27;23202;-19
2022/07/16 02:18:49;;;;;;;0.98;0.88;;;19.60;59.80;;;;;;5084994;28;20506;-19
2022/07/16 02:21:14;;;;;;;1.25;0.82;;;19.60;59.90;;;;;;5080346;27;20387;-19
2022/07/16 02:23:40;;;;;;;0.80;0.80;;;19.60;59.80;;;;;;5083551;27;20033;-20
2022/07/16 02:26:05;;;;;;;1.00;0.90;;;19.70;59.40;;;;;;5083716;27;20036;-19
2022/07/16 02:28:31;;;;;;;2.53;0.80;;;19.70;59.10;;;;;;5080994;27;20075;-19
2022/07/16 02:30:56;;;;;;;0.80;0.80;;;19.80;59.10;;;;;;5083708;27;20028;-19
2022/07/16 02:33:22;;;;;;;1.17;0.80;;;19.60;59.10;;;;;;5082029;27;20047;-20
2022/07/16 02:35:48;;;;;;;0.80;0.80;;;19.50;59.50;;;;;;5083709;27;20402;-20
2022/07/16 02:38:14;;;;;;;1.10;1.00;;;19.60;59.40;;;;;;5081183;28;20397;-19
2022/07/16 02:40:40;;;;;;;0.82;0.82;;;19.50;59.70;;;;;;5083912;27;20036;-19
2022/07/16 02:43:06;;;;;;;1.48;0.90;;;19.50;59.80;;;;;;5084203;27;20032;-19
2022/07/16 02:45:33;;;;;;;1.52;1.10;;;19.50;59.80;;;;;;5081942;27;20040;-19
2022/07/16 02:47:58;;;;;;;1.35;0.80;;;19.50;59.90;;;;;;5082548;27;20078;-19
2022/07/16 02:50:24;;;;;;;1.73;1.20;;;19.40;59.90;;;;;;5082848;27;20139;-19
2022/07/16 02:52:50;;;;;;;1.67;1.00;;;19.30;60.10;;;;;;5085944;27;20044;-19
2022/07/16 02:55:16;;;;;;;0.73;0.73;;;19.30;60.10;;;;;;5083555;27;20047;-19
2022/07/16 02:57:41;;;;;;;1.27;1.00;;;19.30;60.20;;;;;;5082900;27;20040;-19
2022/07/16 03:00:08;;;;;;;2.65;0.73;;;19.40;60.10;;;;;;5080740;28;20044;-19
2022/07/16 03:02:34;;;;;;;2.00;0.65;;;19.40;59.80;;;;;;5083432;27;20070;-19
2022/07/16 03:05:00;;;;;;;0.95;0.88;;;19.40;59.70;;;;;;5083093;28;20103;-19
2022/07/16 03:07:25;;;;;;;0.98;0.85;;;19.30;59.70;;;;;;5081576;27;20243;-19
2022/07/16 03:09:51;;;;;;;1.15;0.80;;;19.40;59.80;;;;;;5083924;27;20070;-20
2022/07/16 03:12:18;;;;;;;1.27;1.00;;;19.40;59.60;;;;;;5082067;27;20047;-20
2022/07/16 03:14:44;;;;;;;0.88;0.80;;;19.10;60.20;;;;;;5083110;28;20410;-19
2022/07/16 03:17:09;;;;;;;0.95;0.90;;;19.20;60.00;;;;;;5079084;28;20433;-19
2022/07/16 03:19:35;;;;;;;1.52;0.90;;;19.20;60.30;;;;;;5083897;27;20055;-19
2022/07/16 03:22:00;;;;;;;1.20;0.95;;;19.20;60.10;;;;;;5081977;27;20139;-19
2022/07/16 03:24:27;;;;;;;2.10;1.30;;;19.30;60.10;;;;;;5081218;27;20032;-20
2022/07/16 03:26:52;;;;;;;2.45;0.82;;;19.30;59.70;;;;;;5080968;27;20040;-19
2022/07/16 03:29:18;;;;;;;1.25;1.00;;;19.40;59.80;;;;;;5086534;27;20043;-19
2022/07/16 03:31:43;;;;;;;0.90;0.88;;;19.40;59.70;;;;;;5087637;27;20139;-20
2022/07/16 03:34:09;;;;;;;1.00;0.90;;;19.30;59.90;;;;;;5088275;27;20544;-19
2022/07/16 03:36:34;;;;;;;1.95;0.90;;;19.20;59.90;;;;;;5085637;27;20052;-24
2022/07/16 03:39:01;;;;;;;1.00;0.90;;;19.30;59.80;;;;;;5087521;27;20059;-19
2022/07/16 03:41:28;;;;;;;1.50;0.90;;;19.20;60.00;;;;;;5086103;27;20151;-19
2022/07/16 03:43:53;;;;;;;1.30;1.05;;;19.20;60.00;;;;;;5084520;27;20508;-19
2022/07/16 03:46:19;;;;;;;1.25;1.00;;;19.20;60.80;;;;;;5087021;27;20078;-19
2022/07/16 03:48:44;;;;;;;1.10;1.00;;;19.20;60.20;;;;;;5088791;27;20502;-19
2022/07/16 03:51:12;;;;;;;2.15;1.00;;;19.20;60.10;;;;;;5082593;28;20130;-19
2022/07/16 03:53:37;;;;;;;5.15;1.38;;;19.10;60.30;;;;;;5086310;27;20492;-25
2022/07/16 03:56:03;;;;;;;1.73;0.93;;;19.10;60.30;;;;;;5083566;28;20565;-19
2022/07/16 03:58:29;;;;;;;0.82;0.82;;;19.10;60.30;;;;;;5086687;27;20040;-19
2022/07/16 04:00:54;;;;;;;1.17;1.08;;;19.00;60.50;;;;;;5089107;27;20046;-19
2022/07/16 04:03:20;;;;;;;1.23;0.80;;;19.00;60.90;;;;;;5085624;27;20040;-28
2022/07/16 04:05:45;;;;;;;2.85;1.00;;;19.10;60.70;;;;;;5084981;27;20410;-19
2022/07/16 04:08:11;;;;;;;0.90;0.80;;;18.90;61.10;;;;;;5086904;27;20044;-24
2022/07/16 04:10:37;;;;;;;1.35;0.90;;;18.80;61.20;;;;;;5086950;27;20535;-19
2022/07/16 04:13:02;;;;;;;1.08;1.08;;;18.70;61.40;;;;;;5087529;28;20082;-19
2022/07/16 04:15:28;;;;;;;1.05;0.90;;;18.80;61.50;;;;;;5082329;27;20494;-19
2022/07/16 04:17:53;;;;;;;2.67;0.95;;;18.70;61.80;;;;;;5084773;27;20059;-19
2022/07/16 04:20:19;;;;;;;2.17;0.85;;;18.80;61.50;;;;;;5084022;27;20539;-19
2022/07/16 04:22:45;;;;;;;1.13;1.02;;;18.60;62.20;;;;;;5087597;27;20048;-19
2022/07/16 04:25:12;;;;;;;0.77;0.77;;;18.60;62.30;;;;;;5085663;27;20044;-22
2022/07/16 04:27:41;;;;;;;1.13;1.02;;;18.60;62.10;;;;;;5085637;27;20032;-19
2022/07/16 04:30:08;;;;;;;1.58;0.85;;;18.70;61.80;;;;;;5085894;28;20039;-19
2022/07/16 04:32:34;;;;;;;0.88;0.80;;;18.70;61.80;;;;;;5082806;27;20040;-19
2022/07/16 04:35:00;;;;;;;0.85;0.85;;;18.70;61.80;;;;;;5086976;28;20066;-19
2022/07/16 04:37:26;;;;;;;1.35;1.02;;;18.50;62.40;;;;;;5084249;28;20514;-19
2022/07/16 04:39:52;;;;;;;1.35;0.90;;;18.50;62.30;;;;;;5083152;28;20098;-19
2022/07/16 04:42:17;;;;;;;1.40;1.10;;;18.70;61.90;;;;;;5086187;27;20047;-18
2022/07/16 04:44:43;;;;;;;1.23;0.90;;;18.70;62.00;;;;;;5084718;27;20040;-22
2022/07/16 04:47:08;;;;;;;1.38;0.90;;;18.70;61.90;;;;;;5086192;28;20040;-19
2022/07/16 04:49:34;;;;;;;2.55;0.90;;;18.50;62.30;;;;;;5085662;27;20103;-20
2022/07/16 04:52:00;;;;;;;4.32;0.93;;;18.50;62.40;;;;;;5086070;28;20047;-19
2022/07/16 04:54:25;;;;;;;1.05;0.73;;;18.60;62.30;;;;;;5084121;27;20125;-20
2022/07/16 04:56:51;;;;;;;5.53;0.80;;;18.60;62.20;;;;;;5081864;27;20032;-19
2022/07/16 04:59:16;;;;;;;1.02;0.90;;;18.60;62.20;;;;;;5084238;27;20036;-19
2022/07/16 05:01:42;;;;;;;1.27;0.82;;;18.50;62.40;;;;;;5084290;27;20502;-19
2022/07/16 05:04:07;;;;;;;2.03;1.00;;;18.60;62.30;;;;;;5085839;27;20128;-19
2022/07/16 05:06:33;;;;;;;2.20;0.98;;;18.50;62.40;;;;;;5086021;27;20047;-20
2022/07/16 05:09:01;;;;;;;1.67;1.02;;;18.50;62.40;;;;;;5083904;27;20044;-19
2022/07/16 05:11:26;;;;;;;0.82;0.82;;;18.40;62.50;;;;;;5085262;27;20506;-19
2022/07/16 05:13:53;;;;;;;1.05;0.77;;;18.50;63.40;;;;;;5085419;27;20039;-23
2022/07/16 05:16:19;;;;;;;2.08;0.85;;;18.40;62.60;;;;;;5086364;28;20320;-19
2022/07/16 05:18:44;;;;;;;1.45;0.70;;;18.40;63.60;;;;;;5082615;28;20129;-19
2022/07/16 05:21:10;;;;;;;2.60;0.80;;;18.50;62.80;;;;;;5084116;27;21404;-19
2022/07/16 05:23:36;;;;;;;1.42;1.05;;;18.40;62.80;;;;;;5083461;27;20044;-19
2022/07/16 05:26:01;;;;;;;1.20;0.68;;;18.30;63.20;;;;;;5085112;27;20121;-20
2022/07/16 05:28:27;;;;;;;1.55;0.63;;;18.30;63.10;;;;;;5083949;27;20047;-18
2022/07/16 05:30:52;;;;;;;1.23;0.60;;;18.40;63.20;;;;;;5084731;28;20040;-19
2022/07/16 05:33:18;;;;;;;1.25;0.75;;;18.40;62.90;;;;;;5085171;27;20091;-19
2022/07/16 05:35:44;;;;;;;0.88;0.75;;;18.40;63.00;;;;;;5084036;27;20047;-19
2022/07/16 05:38:10;;;;;;;1.00;0.90;;;18.40;62.80;;;;;;5081836;28;20048;-19
2022/07/16 05:40:36;;;;;;;0.88;0.77;;;18.40;63.40;;;;;;5082668;27;20569;-19
2022/07/16 05:43:02;;;;;;;4.53;0.80;;;18.30;63.60;;;;;;5086204;28;20166;-19
2022/07/16 05:45:27;;;;;;;0.80;0.80;;;18.40;63.30;;;;;;5083759;27;20406;-25
2022/07/16 05:47:53;;;;;;;1.10;0.82;;;18.50;63.20;;;;;;5080253;28;20070;-19
2022/07/16 05:50:18;;;;;;;0.90;0.80;;;18.30;63.60;;;;;;4723005;27;9999746;-19
2022/07/16 05:52:44;;;;;;;2.03;0.95;;;18.40;63.80;;;;;;5076176;27;20051;-19
2022/07/16 05:55:10;;;;;;;1.05;0.60;;;18.50;63.20;;;;;;5075601;28;20044;-19
2022/07/16 05:57:35;;;;;;;0.95;0.73;;;18.50;63.30;;;;;;5080032;27;20431;-19
2022/07/16 06:00:01;;;;;;;1.02;0.90;;;18.50;63.70;;;;;;5069445;27;20044;-19
2022/07/16 06:02:27;;;;;;;2.55;1.10;;;18.50;63.80;;;;;;5077935;27;20138;-19
2022/07/16 06:04:52;;;;;;;0.77;0.65;;;18.60;63.50;;;;;;5073143;27;20395;-19
2022/07/16 06:07:18;;;;;;;0.70;0.65;;;18.70;62.90;;;;;;5076389;28;20035;-28
2022/07/16 06:09:43;;;;;;;1.52;0.70;;;18.80;62.60;;;;;;5079835;27;20516;-19
2022/07/16 06:12:09;;;;;;;1.77;0.70;;;18.90;62.30;;;;;;5077460;27;20048;-19
2022/07/16 06:14:34;;;;;;;1.50;0.70;;;19.00;62.10;;;;;;5078691;27;20470;-25
2022/07/16 06:17:00;;;;;;;1.25;0.90;;;19.10;61.90;;;;;;5078317;28;20043;-19
2022/07/16 06:19:25;;;;;;;0.70;0.70;;;19.10;61.60;;;;;;5076953;27;20054;-19
2022/07/16 06:21:51;;;;;;;0.60;0.60;;;19.20;61.60;;;;;;5078953;28;20131;-29
2022/07/16 06:24:16;;;;;;;1.67;0.80;;;19.20;61.50;;;;;;5074885;28;20047;-19
2022/07/16 06:26:46;;;;;;;1.95;0.65;;;19.20;61.50;;;;;;5077574;28;20628;-20
2022/07/16 06:29:16;;;;;;;0.73;0.73;;;19.20;61.50;;;;;;5078544;28;20051;-23
2022/07/16 06:31:42;;;;;;;0.65;0.63;;;19.20;61.40;;;;;;5077405;27;20040;-19
2022/07/16 06:34:08;;;;;;;0.80;0.80;;;19.20;61.40;;;;;;5080494;27;20055;-19
2022/07/16 06:36:33;;;;;;;0.45;0.45;;;19.30;61.40;;;;;;5076419;27;20024;-19
2022/07/16 06:38:59;;;;;;;0.80;0.60;;;19.30;61.30;;;;;;5078998;27;20054;-19
2022/07/16 06:41:24;;;;;;;1.75;0.90;;;19.30;61.30;;;;;;5078129;27;20067;-20
2022/07/16 06:43:50;;;;;;;0.60;0.60;;;19.30;61.30;;;;;;5076465;28;20398;-19
2022/07/16 06:46:15;;;;;;;0.90;0.77;;;19.30;61.30;;;;;;5077676;28;20088;-19
2022/07/16 06:48:41;;;;;;;0.70;0.55;;;19.30;61.40;;;;;;5080727;27;20036;-19
2022/07/16 06:51:07;;;;;;;1.95;0.55;;;19.40;61.50;;;;;;5074982;27;20036;-19
2022/07/16 06:53:35;;;;;;;0.90;0.90;;;19.40;61.40;;;;;;5075917;28;20510;-19
2022/07/16 06:56:02;;;;;;;0.40;0.40;;;19.40;61.30;;;;;;5077284;28;20051;-19
2022/07/16 06:58:27;;;;;;;0.57;0.52;;;19.40;61.30;;;;;;5076190;27;20119;-19
2022/07/16 07:00:53;;;;;;;0.55;0.55;;;19.50;61.30;;;;;;5080345;27;20058;-19
2022/07/16 07:03:18;;;;;;;0.75;0.50;;;19.50;61.30;;;;;;5075720;28;20083;-24
2022/07/16 07:05:44;;;;;;;0.70;0.70;;;19.50;61.00;;;;;;5074155;27;20036;-19
2022/07/16 07:08:10;;;;;;;0.63;0.50;;;19.50;61.00;;;;;;5077288;27;20402;-19
2022/07/16 07:10:35;;;;;;;0.80;0.50;;;19.60;60.90;;;;;;5074051;27;20044;-19
2022/07/16 07:13:02;;;;;;;0.40;0.40;;;19.50;60.90;;;;;;5069106;27;20040;-19
2022/07/16 07:15:28;;;;;;;0.40;0.40;;;19.50;61.10;;;;;;5065545;27;20054;-19
2022/07/16 07:17:53;;;;;;;0.93;0.50;;;19.50;60.90;;;;;;5063293;27;20764;-19
2022/07/16 07:20:19;;;;;;;2.33;0.60;;;19.60;61.10;;;;;;5068206;28;20036;-19
2022/07/16 07:22:45;;;;;;;0.80;0.60;;;19.60;61.00;;;;;;5070840;28;20152;-20
2022/07/16 07:25:10;;;;;;;0.50;0.50;;;19.60;60.80;;;;;;5066580;27;20047;-19
2022/07/16 07:27:36;;;;;;;0.52;0.50;;;19.60;60.70;;;;;;5063086;27;20075;-19
2022/07/16 07:30:03;;;;;;;1.45;0.80;;;19.60;60.70;;;;;;5069968;28;20044;-19
2022/07/16 07:32:28;;;;;;;0.40;0.40;;;19.70;60.60;;;;;;5070300;27;20429;-19
2022/07/16 07:34:54;;;;;;;0.45;0.45;;;19.70;60.60;;;;;;5070215;28;20096;-19
2022/07/16 07:37:19;;;;;;;0.55;0.55;;;19.70;60.50;;;;;;5070705;27;20079;-19
2022/07/16 07:39:45;;;;;;;0.50;0.50;;;19.70;60.50;;;;;;5068708;28;20089;-19
2022/07/16 07:42:12;;;;;;;0.40;0.32;;;19.70;60.40;;;;;;5072116;27;20040;-26
2022/07/16 07:44:38;;;;;;;0.50;0.50;;;19.80;60.50;;;;;;5070554;28;20038;-20
2022/07/16 07:47:03;;;;;;;0.55;0.50;;;19.80;60.40;;;;;;5071260;27;20052;-19
2022/07/16 07:49:29;;;;;;;0.50;0.50;;;19.80;60.40;;;;;;5072218;28;20036;-28
2022/07/16 07:51:55;;;;;;;0.45;0.38;;;19.80;60.30;;;;;;5070221;27;20054;-19
2022/07/16 07:54:21;;;;;;;0.60;0.60;;;19.80;60.30;;;;;;5065061;27;20063;-19
2022/07/16 07:56:47;;;;;;;0.60;0.60;;;19.80;60.10;;;;;;5074386;27;20120;-19
2022/07/16 07:59:13;;;;;;;0.52;0.50;;;19.90;60.20;;;;;;5075699;27;20209;-20
2022/07/16 08:01:38;;;;;;;0.43;0.43;;;19.80;60.10;;;;;;5074805;27;20040;-19
2022/07/16 08:04:04;;;;;;;0.60;0.43;;;19.90;60.20;;;;;;5078831;27;20139;-20
2022/07/16 08:06:30;;;;;;;1.35;0.30;;;19.90;60.10;;;;;;5070068;27;20604;-19
2022/07/16 08:08:55;;;;;;;0.40;0.40;;;19.90;60.00;;;;;;5078390;28;20486;-19
2022/07/16 08:11:21;;;;;;;1.65;0.40;;;19.90;60.10;;;;;;5074528;27;20036;-20
2022/07/16 08:13:46;;;;;;;0.50;0.50;;;19.90;60.00;;;;;;5074540;27;20071;-19
2022/07/16 08:16:12;;;;;;;0.43;0.43;;;19.90;60.00;;;;;;5077076;28;20506;-19
2022/07/16 08:18:37;;;;;;;0.60;0.60;;;19.90;60.10;;;;;;5072066;27;20043;-21
2022/07/16 08:21:03;;;;;;;0.60;0.50;;;20.00;59.90;;;;;;5075843;28;20039;-21
2022/07/16 08:26:13;;;;;;;0.50;0.50;;;20.00;59.90;;;;;;5075411;27;20043;-21
2022/07/16 08:28:41;;;;;;;1.00;0.90;;;20.10;60.00;;;;;;5078333;27;20021;-21
2022/07/16 08:31:07;;;;;;;0.60;0.60;;;20.10;60.00;;;;;;5079485;27;20040;-22
2022/07/16 08:33:32;;;;;;;1.00;0.60;;;20.10;60.00;;;;;;5077334;27;20051;-21
2022/07/16 08:36:00;;;;;;;0.50;0.50;;;20.10;60.00;;;;;;5079668;27;20851;-21
2022/07/16 08:38:26;;;;;;;0.75;0.60;;;20.10;60.00;;;;;;5078142;28;20043;-21
2022/07/16 08:40:52;;;;;;;0.38;0.38;;;20.10;60.00;;;;;;5078152;27;20460;-20
2022/07/16 08:43:17;;;;;;;0.40;0.40;;;20.10;60.80;;;;;;5076558;28;20048;-21
2022/07/16 08:45:43;;;;;;;0.32;0.32;;;20.20;60.00;;;;;;5079270;27;20062;-21
2022/07/16 08:48:09;;;;;;;0.68;0.60;;;20.20;60.00;;;;;;5073762;28;20060;-22
2022/07/16 08:50:34;;;;;;;0.50;0.50;;;20.20;60.00;;;;;;5075105;28;20036;-22
2022/07/16 08:53:00;;;;;;;0.40;0.30;;;20.20;59.90;;;;;;5074642;28;20524;-21
2022/07/16 08:55:25;;;;;;;0.50;0.50;;;20.30;60.10;;;;;;5061357;28;20036;-26
2022/07/16 08:57:51;;;;;;;0.95;0.55;;;20.30;60.00;;;;;;5074633;27;20052;-21
2022/07/16 09:00:17;;;;;;;0.40;0.40;;;20.30;59.90;;;;;;5075697;28;20117;-20
2022/07/16 09:02:43;;;;;;;2.35;0.40;;;20.30;59.90;;;;;;5075082;27;20123;-24
2022/07/16 09:05:09;;;;;;;0.40;0.40;;;20.30;59.90;;;;;;5074754;28;20055;-21
2022/07/16 09:07:35;;;;;;;0.60;0.60;;;20.30;59.90;;;;;;5075342;27;20353;-21
2022/07/16 09:10:01;;;;;;;0.30;0.30;;;20.40;60.00;;;;;;5076791;28;20809;-22
2022/07/16 09:12:40;;;;;;;0.35;0.35;;;20.40;59.90;;;;;;5074529;28;20044;-19
2022/07/16 09:15:25;;;;;;;0.80;0.45;;;20.40;59.80;;;;;;5079693;27;20106;-19
2022/07/16 09:18:11;;;;;;;0.40;0.40;;;20.40;59.80;;;;;;5077379;28;20538;-19
2022/07/16 09:20:37;;;;;;;1.95;0.50;;;20.40;59.80;;;;;;5078025;27;20571;-19
2022/07/16 09:23:03;;;;;;;0.52;0.40;;;20.40;59.80;;;;;;5076784;28;20533;-21
2022/07/16 09:25:29;;;;;;;0.50;0.50;;;20.50;59.80;;;;;;5073915;27;20562;-19
2022/07/16 09:27:58;;;;;;;0.52;0.30;;;20.50;59.80;;;;;;5078143;27;20136;-23
2022/07/16 09:30:24;;;;;;;0.43;0.32;;;20.50;59.80;;;;;;5080259;28;20056;-19
2022/07/16 09:32:50;;;;;;;0.65;0.40;;;20.50;59.70;;;;;;5079122;28;20935;-19
2022/07/16 09:35:16;;;;;;;0.88;0.50;;;20.50;59.70;;;;;;5079995;28;20057;-19
2022/07/16 09:37:54;;;;;;;0.60;0.50;;;20.50;59.70;;;;;;5072729;27;20090;-20
2022/07/16 09:40:36;;;;;;;0.32;0.32;;;20.50;59.60;;;;;;5079060;27;20047;-22
2022/07/16 09:43:12;;;;;;;0.85;0.50;;;20.50;59.70;;;;;;5080683;27;20039;-19
2022/07/16 09:45:39;;;;;;;0.47;0.47;;;20.50;59.60;;;;;;5079402;28;20040;-19
2022/07/16 09:48:25;;;;;;;0.60;0.50;;;20.50;59.60;;;;;;5075793;28;20044;-19
2022/07/16 09:50:52;;;;;;;0.47;0.40;;;20.50;59.60;;;;;;5077294;27;20032;-19
2022/07/16 09:53:19;;;;;;;0.35;0.35;;;20.50;59.60;;;;;;5074831;27;20339;-19
2022/07/16 09:56:00;;;;;;;1.52;0.52;;;20.50;59.50;;;;;;5076109;27;20582;-20
2022/07/16 09:58:26;;;;;;;0.40;0.40;;;20.60;59.60;;;;;;5075659;27;20529;-21
2022/07/16 10:00:52;;;;;;;0.47;0.47;;;20.60;59.60;;;;;;5079606;27;20044;-19
2022/07/16 10:03:17;;;;;;;0.40;0.40;;;20.50;59.60;;;;;;5079475;27;20579;-19
2022/07/16 10:05:43;;;;;;;3.38;0.65;;;20.60;59.60;;;;;;5073882;27;20044;-19
2022/07/16 10:08:08;;;;;;;0.43;0.43;;;20.60;59.50;;;;;;5077285;27;20033;-19
2022/07/16 10:10:34;;;;;;;0.60;0.52;;;20.60;59.60;;;;;;5077777;28;20051;-19
2022/07/16 10:13:00;;;;;;;1.02;0.70;;;20.60;59.60;;;;;;5078823;28;20090;-19
2022/07/16 10:15:25;;;;;;;2.10;0.77;;;20.60;59.60;;;;;;5072721;28;20475;-19
2022/07/16 10:17:51;;;;;;;0.73;0.73;;;20.60;59.60;;;;;;5075754;27;20048;-19
2022/07/16 10:20:18;;;;;;;0.60;0.60;;;20.60;59.60;;;;;;5077433;27;20565;-19
2022/07/16 10:22:48;;;;;;;1.00;0.90;;;20.60;59.50;;;;;;5075800;27;20571;-24
2022/07/16 10:25:22;;;;;;;1.33;0.85;;;20.70;59.50;;;;;;5055451;28;20471;-19
2022/07/16 10:27:48;;;;;;;1.25;0.90;;;20.70;59.60;;;;;;5069172;27;20041;-19
2022/07/16 10:30:25;;;;;;;1.48;1.00;;;20.70;59.70;;;;;;5075544;27;20092;-19
2022/07/16 10:33:00;;;;;;;2.28;1.10;;;20.70;59.80;;;;;;5068119;28;20048;-19
2022/07/16 10:35:42;;;;;;;1.40;1.25;;;20.70;60.00;;;;;;5073105;28;20043;-20
2022/07/16 10:38:12;;;;;;;1.10;1.00;;;20.70;60.20;;;;;;5071608;27;20120;-19
2022/07/16 10:40:40;;;;;;;1.55;1.30;;;20.70;60.30;;;;;;5069002;28;20048;-19
2022/07/16 10:43:14;;;;;;;1.45;1.33;;;20.70;60.50;;;;;;5071334;27;20135;-22
2022/07/16 10:46:06;;;;;;;1.45;1.35;;;20.80;60.60;;;;;;5074546;27;20059;-19
2022/07/16 10:48:38;;;;;;;1.02;0.80;;;20.70;60.40;;;;;;5069498;27;20124;-19
2022/07/16 10:51:19;;;;;;;1.10;1.00;;;20.80;60.40;;;;;;5070535;27;20053;-19
2022/07/16 10:53:57;;;;;;;1.02;0.95;;;20.80;60.30;;;;;;5070005;27;20558;-19
2022/07/16 10:56:52;;;;;;;1.45;0.93;;;20.80;60.50;;;;;;5070722;27;20135;-19
2022/07/16 10:59:23;;;;;;;0.98;0.93;;;20.80;60.30;;;;;;5070704;27;20062;-19
2022/07/16 11:01:53;;;;;;;1.85;1.10;;;20.80;60.40;;;;;;5069341;27;20524;-19
2022/07/16 11:04:30;;;;;;;0.77;0.70;;;20.80;60.30;;;;;;5072071;28;20437;-20
2022/07/16 11:06:55;;;;;;;0.90;0.80;;;20.80;60.30;;;;;;5069550;27;20070;-20
2022/07/16 11:09:32;;;;;;;0.90;0.80;;;20.90;60.50;;;;;;5073535;27;20131;-19
2022/07/16 11:12:14;;;;;;;0.90;0.90;;;20.90;60.50;;;;;;5067470;27;20401;-19
2022/07/16 11:14:40;;;;;;;1.48;0.70;;;20.90;60.40;;;;;;5073099;27;20039;-18
2022/07/16 11:17:06;;;;;;;0.80;0.80;;;20.90;60.50;;;;;;5068687;28;20605;-20
2022/07/16 11:19:39;;;;;;;0.75;0.60;;;20.90;60.40;;;;;;5072397;28;20074;-19
2022/07/16 11:22:04;;;;;;;1.58;0.90;;;20.90;60.40;;;;;;5067932;28;20072;-20
2022/07/16 11:24:30;;;;;;;1.00;0.90;;;20.90;60.40;;;;;;5071508;28;20071;-20
2022/07/16 11:26:57;;;;;;;0.60;0.60;;;20.90;60.40;;;;;;5068661;27;20032;-24
2022/07/16 11:29:24;;;;;;;0.90;0.70;;;20.90;60.40;;;;;;5066872;28;20044;-21
2022/07/16 11:31:50;;;;;;;0.60;0.57;;;20.90;60.40;;;;;;5071026;27;20047;-19
2022/07/16 11:34:18;;;;;;;0.93;0.55;;;20.90;60.50;;;;;;5071851;28;20048;-19
2022/07/16 11:36:45;;;;;;;0.70;0.70;;;21.00;60.50;;;;;;5071602;28;20040;-19
2022/07/16 11:39:14;;;;;;;0.75;0.70;;;21.00;60.50;;;;;;5076546;27;20051;-20
2022/07/16 11:41:44;;;;;;;0.45;0.45;;;21.00;60.50;;;;;;5071128;27;20059;-19
2022/07/16 11:44:14;;;;;;;0.50;0.50;;;21.00;60.60;;;;;;5071363;27;20067;-20
2022/07/16 11:46:44;;;;;;;0.77;0.70;;;21.10;60.80;;;;;;5070720;28;20064;-19
2022/07/16 11:49:10;;;;;;;1.10;0.70;;;21.00;60.90;;;;;;5078713;28;20036;-20
2022/07/16 11:51:40;;;;;;;0.60;0.60;;;21.00;60.70;;;;;;5079872;27;20044;-19
2022/07/16 11:54:06;;;;;;;0.80;0.73;;;21.10;60.60;;;;;;5082137;27;21096;-20
2022/07/16 11:56:37;;;;;;;0.50;0.50;;;21.00;60.50;;;;;;5073826;28;20503;-19
2022/07/16 11:59:21;;;;;;;0.60;0.60;;;21.00;60.50;;;;;;5080855;27;21141;-19
2022/07/16 12:01:47;;;;;;;;;;;21.00;60.40;;;;;;5077906;28;20070;-19
2022/07/16 12:04:13;;;;;;;0.63;0.60;;;21.10;60.40;;;;;;5076864;27;19967;-19
2022/07/16 12:06:43;;;;;;;0.45;0.45;;;21.10;60.40;;;;;;5075481;28;21926;-19
2022/07/16 12:09:09;;;;;;;0.50;0.50;;;21.10;61.10;;;;;;5075214;28;20040;-19
2022/07/16 12:11:35;;;;;;;0.50;0.50;;;21.10;60.60;;;;;;5077994;28;20065;-26
2022/07/16 12:14:02;;;;;;;0.40;0.40;;;21.10;60.80;;;;;;5077974;28;20040;-19
2022/07/16 12:16:27;;;;;;;0.50;0.50;;;21.10;60.80;;;;;;5077084;28;20098;-19
2022/07/16 12:19:04;;;;;;;0.52;0.52;;;21.10;60.60;;;;;;5077964;28;20068;-19
2022/07/16 12:21:34;;;;;;;0.80;0.70;;;21.10;60.60;;;;;;5080865;28;20040;-19
2022/07/16 12:24:00;;;;;;;0.63;0.63;;;21.20;60.80;;;;;;5076522;27;20037;-19
2022/07/16 12:26:34;;;;;;;0.95;0.80;;;21.20;60.80;;;;;;5075826;28;20182;-19
2022/07/16 12:29:00;;;;;;;0.68;0.68;;;21.20;60.80;;;;;;5074392;27;20044;-19
2022/07/16 12:31:26;;;;;;;0.50;0.50;;;21.20;60.90;;;;;;5078815;27;20161;-19
2022/07/16 12:33:52;;;;;;;0.57;0.57;;;21.20;60.80;;;;;;5077314;27;20178;-24
2022/07/16 12:36:21;;;;;;;0.52;0.45;;;21.20;60.80;;;;;;5076605;28;20096;-19
2022/07/16 12:41:28;;;;;;;0.50;0.50;;;21.30;60.90;;;;;;5079318;27;20036;-19
2022/07/16 12:44:01;;;;;;;0.50;0.50;;;21.30;60.80;;;;;;5078978;27;20036;-19
2022/07/16 12:46:28;;;;;;;0.50;0.50;;;21.30;60.70;;;;;;5075832;28;20119;-19
2022/07/16 12:49:15;;;;;;;0.38;0.38;;;21.30;60.70;;;;;;5075545;28;20044;-25
2022/07/16 12:51:45;;;;;;;0.40;0.40;;;21.30;60.70;;;;;;5076051;28;20048;-20
2022/07/16 12:54:13;;;;;;;0.45;0.45;;;21.30;60.70;;;;;;5074168;27;21904;-19